Time;durP1;ratioP1;P1;durP2;ratioP2;P2;SDS_P1;SDS_P2;PMS_P1;PMS_P2;Temp;Humidity;BMP_temperature;BMP_pressure;BME280_temperature;BME280_humidity;BME280_pressure;Samples;Min_cycle;Max_cycle;Signal;HPM_P1;HPM_P2
2022/04/28 00:00:53;;;;;;;10.35;5.45;;;;;;;14.37;68.16;100238.34;4406968;32;32839;-84
2022/04/28 00:06:11;;;;;;;10.13;5.57;;;;;;;14.25;68.67;100234.59;4425827;32;34723;-84
2022/04/28 00:08:49;;;;;;;9.15;5.43;;;;;;;14.32;68.25;100234.53;4411535;32;34287;-84
2022/04/28 00:11:25;;;;;;;;;;;;;;;14.25;68.42;100233.75;4412780;32;34037;-83
2022/04/28 00:13:58;;;;;;;9.45;5.40;;;;;;;14.25;68.63;100234.59;4421618;32;32544;-83
2022/04/28 00:16:30;;;;;;;7.95;5.05;;;;;;;14.36;68.09;100239.41;4412464;32;33834;-83
2022/04/28 00:19:03;;;;;;;8.52;5.82;;;;;;;14.43;67.75;100236.66;4424840;32;35211;-83
2022/04/28 00:21:31;;;;;;;11.05;7.20;;;;;;;14.33;67.89;100228.81;4400114;32;33042;-83
2022/04/28 00:23:59;;;;;;;8.88;5.37;;;;;;;14.23;68.21;100233.97;4399326;32;31859;-83
2022/04/28 00:26:26;;;;;;;9.80;5.70;;;;;;;14.09;67.90;100238.69;4412113;32;32212;-83
2022/04/28 00:28:55;;;;;;;8.55;5.40;;;;;;;13.93;68.27;100228.16;4412048;32;34040;-83
2022/04/28 00:31:25;;;;;;;9.35;5.55;;;;;;;13.98;68.27;100236.63;4410868;32;32579;-83
2022/04/28 00:33:55;;;;;;;9.13;5.05;;;;;;;14.09;67.84;100232.34;4411768;32;33062;-84
2022/04/28 00:36:26;;;;;;;9.15;5.72;;;;;;;14.00;68.04;100228.13;4424532;32;33721;-83
2022/04/28 00:38:54;;;;;;;9.05;5.90;;;;;;;14.12;67.86;100227.22;4408237;32;32946;-82
2022/04/28 00:41:25;;;;;;;9.23;5.90;;;;;;;13.99;68.37;100227.28;4411558;32;34703;-83
2022/04/28 00:43:54;;;;;;;8.55;5.80;;;;;;;14.10;68.24;100234.03;4411698;32;33301;-83
2022/04/28 00:46:22;;;;;;;10.73;6.35;;;;;;;14.04;68.44;100232.16;4398359;32;33409;-83
2022/04/28 00:51:44;;;;;;;9.25;5.57;;;;;;;14.29;67.78;100237.78;4426555;32;34018;-82
2022/04/28 00:54:15;;;;;;;8.80;5.72;;;;;;;14.13;68.08;100237.19;4410978;32;31312;-83
2022/04/28 00:56:45;;;;;;;9.75;5.55;;;;;;;14.20;67.87;100237.19;4411415;32;34641;-84
2022/04/28 00:59:16;;;;;;;10.73;6.97;;;;;;;14.15;67.96;100235.06;4411480;32;35369;-82
2022/04/28 01:01:44;;;;;;;10.10;5.50;;;;;;;14.03;68.18;100235.97;4411470;32;34500;-83
2022/04/28 01:04:12;;;;;;;11.10;6.28;;;;;;;14.03;68.27;100236.81;4411836;32;33264;-82
2022/04/28 01:06:43;;;;;;;9.80;6.35;;;;;;;14.07;68.03;100234.47;4411607;32;32338;-82
2022/04/28 01:09:11;;;;;;;9.02;5.25;;;;;;;14.16;67.48;100228.47;4398871;32;33453;-82
2022/04/28 01:11:40;;;;;;;11.12;6.40;;;;;;;13.89;68.31;100232.41;4411523;32;33959;-81
2022/04/28 01:14:10;;;;;;;9.60;6.05;;;;;;;14.01;67.45;100233.44;4399020;32;31372;-82
2022/04/28 01:16:39;;;;;;;8.50;5.32;;;;;;;14.16;67.13;100228.47;4412031;32;33699;-82
2022/04/28 01:19:07;;;;;;;9.30;5.55;;;;;;;14.04;67.45;100230.22;4392648;32;32841;-82
2022/04/28 01:21:38;;;;;;;8.93;5.32;;;;;;;14.01;67.52;100230.66;4410967;32;33910;-82
2022/04/28 01:24:13;;;;;;;10.43;5.50;;;;;;;14.06;67.11;100225.34;4404854;32;32823;-82
2022/04/28 01:26:41;;;;;;;8.38;5.25;;;;;;;14.06;66.64;100218.97;4410382;32;32221;-82
2022/04/28 01:29:09;;;;;;;8.38;5.55;;;;;;;14.06;66.65;100228.09;4410689;32;35376;-83
2022/04/28 01:31:42;;;;;;;8.95;5.30;;;;;;;14.10;66.38;100221.06;4398313;32;32438;-82
2022/04/28 01:34:10;;;;;;;8.38;5.57;;;;;;;14.14;66.22;100219.56;4411779;32;33959;-82
2022/04/28 01:36:40;;;;;;;11.43;6.05;;;;;;;14.11;66.52;100221.94;4411145;32;33962;-82
2022/04/28 01:39:12;;;;;;;7.82;5.07;;;;;;;14.20;66.46;100219.75;4410712;32;34862;-82
2022/04/28 01:41:40;;;;;;;8.80;5.65;;;;;;;14.15;66.38;100221.25;4412095;32;33916;-82
2022/04/28 01:44:11;;;;;;;9.90;5.72;;;;;;;14.04;66.60;100221.09;4413442;32;33365;-82
2022/04/28 01:46:42;;;;;;;9.52;5.95;;;;;;;14.06;66.46;100214.31;4413635;32;34593;-82
2022/04/28 01:49:10;;;;;;;9.90;6.00;;;;;;;13.99;66.64;100216.25;4412652;32;33874;-82
2022/04/28 01:57:15;;;;;;;11.35;6.12;;;;;;;13.96;67.02;100218.59;4424915;32;33638;-82
2022/04/28 01:59:44;;;;;;;9.82;5.60;;;;;;;14.05;66.73;100215.38;4400225;32;32901;-81
2022/04/28 02:02:16;;;;;;;11.25;5.90;;;;;;;14.02;66.79;100221.31;4395189;32;33738;-82
2022/04/28 02:04:45;;;;;;;10.75;6.32;;;;;;;14.10;66.54;100223.84;4412942;32;31695;-82
2022/04/28 02:07:15;;;;;;;10.10;6.62;;;;;;;14.08;66.72;100222.34;4413367;32;33848;-84
2022/04/28 02:09:45;;;;;;;10.15;6.00;;;;;;;14.05;66.78;100223.66;4425728;32;34584;-82
2022/04/28 02:12:13;;;;;;;9.82;6.53;;;;;;;14.00;67.02;100234.50;4412688;32;34710;-82
2022/04/28 02:14:46;;;;;;;10.32;5.80;;;;;;;14.10;66.79;100226.59;4406793;32;31712;-82
2022/04/28 02:17:17;;;;;;;10.90;5.43;;;;;;;13.94;67.28;100231.75;4404642;32;34249;-82
2022/04/28 02:19:48;;;;;;;9.70;5.22;;;;;;;13.84;67.62;100229.44;4412847;32;35208;-82
2022/04/28 02:22:16;;;;;;;10.32;5.60;;;;;;;13.93;67.32;100219.87;4410187;32;33714;-82
2022/04/28 02:24:44;;;;;;;8.57;5.35;;;;;;;13.92;67.33;100218.19;4413037;32;34074;-82
2022/04/28 02:27:17;;;;;;;10.65;5.87;;;;;;;14.00;66.83;100220.69;4413433;32;34523;-83
2022/04/28 02:29:46;;;;;;;9.35;5.75;;;;;;;13.93;67.04;100217.09;4425379;32;35550;-82
2022/04/28 02:32:14;;;;;;;10.35;6.05;;;;;;;13.92;67.06;100220.09;4400445;32;32456;-82
2022/04/28 02:34:42;;;;;;;9.95;5.97;;;;;;;13.89;67.15;100212.25;4412631;32;31709;-82
2022/04/28 02:37:16;;;;;;;10.13;5.53;;;;;;;13.91;66.92;100205.44;4412984;32;33320;-82
2022/04/28 02:39:44;;;;;;;8.27;5.40;;;;;;;13.80;67.31;100206.13;4413101;32;33119;-82
2022/04/28 02:42:13;;;;;;;9.55;5.57;;;;;;;13.82;67.14;100206.75;4412480;32;34322;-82
2022/04/28 02:44:42;;;;;;;9.35;5.62;;;;;;;14.04;66.42;100210.91;4411865;32;33239;-83
2022/04/28 02:47:13;;;;;;;9.07;5.47;;;;;;;13.73;67.43;100208.03;4399911;32;33222;-84
2022/04/28 02:49:41;;;;;;;10.20;5.95;;;;;;;13.67;67.69;100208.91;4425401;32;35136;-82
2022/04/28 02:52:09;;;;;;;8.07;5.72;;;;;;;13.74;67.49;100212.50;4413223;32;34602;-82
2022/04/28 02:54:37;;;;;;;8.13;5.47;;;;;;;13.75;67.37;100208.69;4412567;32;33970;-82
2022/04/28 02:57:06;;;;;;;9.85;5.70;;;;;;;13.81;67.13;100210.56;4412705;32;32083;-82
2022/04/28 02:59:36;;;;;;;9.05;5.62;;;;;;;13.80;66.95;100208.88;4413118;32;34119;-82
2022/04/28 03:02:05;;;;;;;8.55;5.62;;;;;;;13.94;66.34;100215.19;4400438;32;33114;-82
2022/04/28 03:04:33;;;;;;;10.02;6.22;;;;;;;13.79;66.84;100213.53;4412539;32;33390;-82
2022/04/28 03:12:37;;;;;;;10.02;5.97;;;;;;;13.77;66.72;100215.66;4413799;32;33324;-82
2022/04/28 03:15:09;;;;;;;9.15;5.37;;;;;;;13.78;66.65;100211.00;4413597;32;34067;-82
2022/04/28 03:17:37;;;;;;;12.55;6.32;;;;;;;13.71;66.73;100207.41;4399793;32;32594;-82
2022/04/28 03:20:06;;;;;;;10.85;5.93;;;;;;;13.70;66.73;100216.75;4412897;32;34674;-82
2022/04/28 03:22:36;;;;;;;10.85;5.45;;;;;;;13.73;66.67;100217.16;4413068;32;33955;-83
2022/04/28 03:25:03;;;;;;;8.77;5.70;;;;;;;13.79;66.45;100224.56;4412495;32;33580;-82
2022/04/28 03:27:32;;;;;;;9.65;5.28;;;;;;;13.72;66.58;100221.00;4412981;32;34387;-84
2022/04/28 03:30:08;;;;;;;9.60;6.22;;;;;;;13.75;66.55;100228.84;4399947;32;33011;-81
2022/04/28 03:32:42;;;;;;;11.02;6.40;;;;;;;13.79;66.29;100226.50;4425647;32;33827;-81
2022/04/28 03:35:11;;;;;;;11.15;6.22;;;;;;;13.68;66.45;100227.16;4412387;32;31747;-81
2022/04/28 03:37:47;;;;;;;9.63;5.95;;;;;;;13.71;66.07;100226.72;4400050;32;32726;-81
2022/04/28 03:40:16;;;;;;;10.73;6.37;;;;;;;13.59;66.21;100226.56;4400178;32;32908;-81
2022/04/28 03:42:48;;;;;;;8.90;5.70;;;;;;;13.63;65.89;100224.22;4412505;32;33758;-81
2022/04/28 03:45:17;;;;;;;11.95;6.35;;;;;;;13.58;65.92;100235.06;4412733;32;34107;-81
2022/04/28 03:47:47;;;;;;;9.98;5.87;;;;;;;13.57;66.03;100233.37;4413493;32;34146;-80
2022/04/28 03:50:14;;;;;;;9.48;6.43;;;;;;;13.56;65.90;100239.94;4412245;32;35278;-81
2022/04/28 03:52:45;;;;;;;10.65;6.30;;;;;;;13.52;66.38;100242.28;4412875;32;34889;-81
2022/04/28 03:55:15;;;;;;;9.00;6.20;;;;;;;13.48;66.51;100241.84;4405966;32;32367;-80
2022/04/28 03:57:46;;;;;;;9.93;6.40;;;;;;;13.57;66.28;100248.00;4412348;32;33359;-80
2022/04/28 04:00:21;;;;;;;9.50;6.00;;;;;;;13.49;66.50;100245.47;4412253;32;33549;-80
2022/04/28 04:02:54;;;;;;;10.25;6.50;;;;;;;13.65;65.81;100246.94;4400734;32;34081;-81
2022/04/28 04:05:28;;;;;;;9.82;6.00;;;;;;;13.62;65.86;100252.88;4398107;32;33132;-81
2022/04/28 04:07:57;;;;;;;10.18;6.32;;;;;;;13.46;65.86;100251.41;4411206;32;33824;-81
2022/04/28 04:10:30;;;;;;;10.65;6.12;;;;;;;13.52;65.58;100254.16;4411716;32;34551;-81
2022/04/28 04:13:01;;;;;;;9.63;6.03;;;;;;;13.43;66.27;100257.34;4412832;32;34270;-82
2022/04/28 04:15:36;;;;;;;11.35;6.75;;;;;;;13.62;65.97;100255.62;4397222;32;31245;-83
2022/04/28 04:18:10;;;;;;;10.07;6.25;;;;;;;13.64;65.93;100257.09;4411807;32;33584;-81
2022/04/28 04:20:38;;;;;;;9.48;6.00;;;;;;;13.61;66.09;100253.94;4399208;32;33135;-81
2022/04/28 04:23:06;;;;;;;11.65;6.68;;;;;;;13.54;65.78;100259.47;4412074;32;32542;-81
2022/04/28 04:25:39;;;;;;;12.10;5.85;;;;;;;13.71;65.31;100265.34;4399691;32;31834;-82
2022/04/28 04:28:07;;;;;;;11.57;6.53;;;;;;;13.54;65.84;100264.97;4400041;32;33461;-81
2022/04/28 04:33:27;;;;;;;16.35;9.85;;;;;;;13.59;65.90;100251.38;4427180;32;34752;-81
2022/04/28 04:35:57;;;;;;;13.98;8.85;;;;;;;13.51;65.92;100257.97;4399582;32;32531;-78
2022/04/28 04:38:25;;;;;;;13.20;8.27;;;;;;;13.59;66.08;100251.38;4412210;32;33695;-81
2022/04/28 04:40:55;;;;;;;15.63;10.13;;;;;;;13.69;66.84;100267.47;4412204;32;32796;-81
2022/04/28 04:43:25;;;;;;;11.43;7.47;;;;;;;13.79;66.01;100260.44;4399452;32;33173;-81
2022/04/28 04:45:54;;;;;;;10.27;6.25;;;;;;;13.70;66.23;100267.25;4399761;32;31400;-81
2022/04/28 04:48:33;;;;;;;9.15;5.50;;;;;;;13.61;65.94;100257.53;4400676;32;32286;-81
2022/04/28 04:51:10;;;;;;;10.23;6.12;;;;;;;13.62;66.09;100269.41;4413149;32;34481;-81
2022/04/28 04:53:40;;;;;;;10.20;6.57;;;;;;;13.77;65.61;100265.31;4412187;32;34680;-81
2022/04/28 04:56:14;;;;;;;9.98;6.32;;;;;;;13.75;65.88;100274.87;4411826;32;31905;-81
2022/04/28 04:58:42;;;;;;;10.60;6.37;;;;;;;13.71;65.87;100274.47;4412323;32;33100;-81
2022/04/28 05:01:10;;;;;;;9.48;6.50;;;;;;;13.77;65.52;100273.59;4412246;32;34356;-81
2022/04/28 05:03:42;;;;;;;9.70;6.12;;;;;;;13.87;65.25;100273.16;4413023;32;34067;-81
2022/04/28 05:06:16;;;;;;;11.05;6.80;;;;;;;13.74;65.43;100276.78;4408830;32;33350;-81
2022/04/28 05:08:45;;;;;;;10.50;6.35;;;;;;;13.80;65.42;100272.31;4408724;32;32540;-82
2022/04/28 05:11:16;;;;;;;9.25;6.12;;;;;;;13.83;65.31;100277.41;4426773;32;33706;-81
2022/04/28 05:13:52;;;;;;;11.10;6.20;;;;;;;13.83;65.41;100280.16;4428067;32;33943;-81
2022/04/28 05:16:24;;;;;;;10.25;6.32;;;;;;;13.91;65.14;100281.84;4419646;32;31485;-81
2022/04/28 05:18:55;;;;;;;10.25;6.40;;;;;;;13.92;65.34;100278.88;4420355;32;33149;-81
2022/04/28 05:21:30;;;;;;;10.55;6.53;;;;;;;13.93;65.21;100288.84;4441648;32;34533;-82
2022/04/28 05:23:59;;;;;;;9.43;6.30;;;;;;;13.93;65.17;100299.88;4428941;32;34612;-81
2022/04/28 05:26:31;;;;;;;9.93;5.75;;;;;;;13.54;65.55;100295.31;4429073;32;33945;-82
2022/04/28 05:29:02;;;;;;;10.13;6.25;;;;;;;13.95;64.58;100296.91;4413977;32;32457;-82
2022/04/28 05:31:41;;;;;;;10.38;6.25;;;;;;;14.01;64.68;100296.06;4417071;32;33399;-81
2022/04/28 05:34:14;;;;;;;10.57;6.35;;;;;;;13.90;65.30;100308.59;4415393;32;32639;-82
2022/04/28 05:36:46;;;;;;;10.70;6.85;;;;;;;13.88;65.65;100310.72;4440891;32;33622;-81
2022/04/28 05:39:28;;;;;;;10.13;6.75;;;;;;;14.02;65.21;100306.88;4430330;32;33642;-81
2022/04/28 05:41:58;;;;;;;;;;;;;;;14.20;64.95;100303.44;4455557;32;34215;-81
2022/04/28 05:47:22;;;;;;;10.95;6.55;;;;;;;14.20;65.29;100305.34;4433192;32;33305;-81
2022/04/28 05:49:56;;;;;;;9.68;6.70;;;;;;;14.25;65.22;100302.78;4428822;32;32667;-81
2022/04/28 05:52:29;;;;;;;10.15;6.65;;;;;;;14.31;65.01;100310.16;4429924;32;34300;-81
2022/04/28 05:54:59;;;;;;;10.57;7.10;;;;;;;14.33;65.08;100308.03;4429418;32;34151;-81
2022/04/28 05:57:30;;;;;;;8.60;5.53;;;;;;;14.41;65.03;100314.19;4416356;32;31748;-81
2022/04/28 06:00:03;;;;;;;9.68;6.80;;;;;;;14.06;65.13;100313.66;4416416;32;33235;-81
2022/04/28 06:02:41;;;;;;;12.00;6.85;;;;;;;14.37;64.35;100318.41;4429198;32;32775;-82
2022/04/28 06:05:17;;;;;;;10.27;6.68;;;;;;;14.38;64.88;100313.75;4429614;32;33492;-81
2022/04/28 06:07:51;;;;;;;11.38;6.40;;;;;;;14.33;64.90;100317.16;4429122;32;34289;-82
2022/04/28 06:10:19;;;;;;;10.77;6.43;;;;;;;14.42;65.07;100312.28;4425988;32;33642;-81
2022/04/28 06:12:48;;;;;;;12.85;7.28;;;;;;;14.52;64.95;100320.94;4410950;32;32827;-81
2022/04/28 06:15:25;;;;;;;10.05;6.65;;;;;;;14.60;64.73;100328.97;4416991;32;33451;-81
2022/04/28 06:18:03;;;;;;;10.15;6.37;;;;;;;14.57;64.19;100321.13;4430570;32;32356;-81
2022/04/28 06:20:34;;;;;;;9.65;5.85;;;;;;;13.96;64.92;100329.81;4429344;32;34017;-81
2022/04/28 06:23:11;;;;;;;9.60;6.05;;;;;;;14.14;65.17;100332.75;4429363;32;34056;-81
2022/04/28 06:26:04;;;;;;;10.85;7.82;;;;;;;14.33;64.45;100325.44;4443672;32;34188;-81
2022/04/28 06:28:33;;;;;;;10.85;6.62;;;;;;;14.34;64.46;100335.41;4415585;32;32684;-82
2022/04/28 06:31:06;;;;;;;8.73;5.85;;;;;;;14.67;63.47;100332.56;4428813;32;33662;-82
2022/04/28 06:33:42;;;;;;;8.57;5.55;;;;;;;14.62;63.71;100335.13;4430037;32;32983;-81
2022/04/28 06:36:13;;;;;;;10.77;6.05;;;;;;;14.77;63.24;100346.75;4416249;32;32906;-81
2022/04/28 06:38:48;;;;;;;11.07;5.60;;;;;;;14.76;63.18;100342.28;4429525;32;33194;-81
2022/04/28 06:41:24;;;;;;;13.82;6.60;;;;;;;14.83;63.09;100342.25;4428385;32;32170;-81
2022/04/28 06:44:07;;;;;;;9.32;6.12;;;;;;;15.01;62.65;100338.72;4441210;32;35192;-81
2022/04/28 06:46:54;;;;;;;9.73;6.22;;;;;;;15.12;62.02;100335.25;4417599;32;32831;-81
2022/04/28 06:49:30;;;;;;;9.10;5.62;;;;;;;15.00;62.45;100337.03;4428341;32;32241;-82
2022/04/28 06:52:09;;;;;;;10.30;6.25;;;;;;;14.95;62.67;100339.66;4429309;32;32647;-81
2022/04/28 06:54:46;;;;;;;10.88;5.75;;;;;;;14.83;62.80;100343.13;4416462;32;33036;-81
2022/04/28 06:57:19;;;;;;;10.60;5.80;;;;;;;15.08;62.19;100339.53;4441034;32;33728;-81
2022/04/28 06:59:56;;;;;;;;;;;;;;;15.13;62.45;100343.34;4429756;32;33297;-79
2022/04/28 07:02:27;;;;;;;11.60;6.68;;;;;;;15.09;61.99;100336.56;4441205;32;34765;-81
2022/04/28 07:05:01;;;;;;;10.90;6.75;;;;;;;15.53;62.22;100342.22;4427815;32;33152;-80
2022/04/28 07:07:29;;;;;;;10.18;6.18;;;;;;;15.41;60.77;100337.41;4415531;32;33237;-81
2022/04/28 07:10:00;;;;;;;11.05;6.45;;;;;;;15.53;60.29;100342.22;4415561;32;32445;-81
2022/04/28 07:12:43;;;;;;;12.05;5.93;;;;;;;15.45;59.83;100341.41;4416868;32;32333;-81
2022/04/28 07:15:23;;;;;;;11.70;5.72;;;;;;;15.08;59.34;100345.06;4416903;32;32779;-81
2022/04/28 07:17:54;;;;;;;10.52;5.62;;;;;;;14.88;59.63;100350.75;4428242;32;32402;-81
2022/04/28 07:20:22;;;;;;;9.98;6.35;;;;;;;15.31;58.64;100345.34;4415579;32;31935;-81
2022/04/28 07:22:59;;;;;;;10.77;6.12;;;;;;;15.24;58.95;100347.31;4428228;32;32728;-81
2022/04/28 07:25:30;;;;;;;11.38;5.90;;;;;;;15.27;59.20;100352.37;4415544;32;34560;-82
2022/04/28 07:27:58;;;;;;;10.95;6.87;;;;;;;15.31;59.73;100344.50;4413115;32;33852;-81
2022/04/28 07:30:27;;;;;;;11.30;7.28;;;;;;;15.43;59.57;100346.31;4400313;32;32138;-82
2022/04/28 07:32:55;;;;;;;9.77;6.18;;;;;;;15.24;59.44;100352.00;4412875;32;32268;-81
2022/04/28 07:35:31;;;;;;;10.55;6.20;;;;;;;15.36;59.06;100355.72;4414672;32;34407;-82
2022/04/28 07:38:08;;;;;;;8.50;5.75;;;;;;;15.42;60.03;100355.69;4427291;32;34611;-82
2022/04/28 07:40:54;;;;;;;10.23;6.15;;;;;;;15.40;60.54;100352.31;4419310;32;32590;-82
2022/04/28 07:43:30;;;;;;;20.50;13.40;;;;;;;15.53;59.75;100358.81;4426138;32;32456;-82
2022/04/28 07:46:03;;;;;;;15.63;9.73;;;;;;;15.47;59.57;100355.87;4433244;32;34989;-81
2022/04/28 07:48:40;;;;;;;11.55;7.15;;;;;;;15.62;59.59;100361.06;4407430;32;32974;-81
2022/04/28 07:51:10;;;;;;;12.60;6.50;;;;;;;15.78;60.42;100363.28;4421561;32;31910;-81
2022/04/28 07:53:44;;;;;;;9.68;6.40;;;;;;;15.95;61.03;100359.94;4418484;32;33842;-81
2022/04/28 07:56:20;;;;;;;9.27;6.15;;;;;;;16.02;61.35;100364.34;4417790;32;34277;-81
2022/04/28 07:58:51;;;;;;;8.38;5.72;;;;;;;15.88;60.19;100370.22;4416377;32;32767;-82
2022/04/28 08:01:44;;;;;;;13.57;7.75;;;;;;;15.95;57.81;100368.25;4408048;32;32746;-81
2022/04/28 08:04:12;;;;;;;10.95;6.93;;;;;;;16.00;58.49;100362.87;4413661;32;32850;-81
2022/04/28 08:06:41;;;;;;;14.95;8.63;;;;;;;16.32;58.65;100367.19;4418815;32;32967;-81
2022/04/28 08:09:11;;;;;;;27.98;14.43;;;;;;;16.56;61.21;100359.03;4398263;32;32471;-81
2022/04/28 08:11:43;;;;;;;9.80;5.55;;;;;;;16.85;60.21;100365.75;4422091;32;33621;-81
2022/04/28 08:14:23;;;;;;;8.98;3.60;;;;;;;17.02;56.00;100369.53;4409719;32;34581;-81
2022/04/28 08:17:05;;;;;;;6.27;3.43;;;;;;;17.15;48.98;100372.13;4397412;32;32975;-81
2022/04/28 08:19:40;;;;;;;7.50;3.35;;;;;;;17.60;50.32;100374.41;4405542;32;33359;-82
2022/04/28 08:22:15;;;;;;;9.23;5.43;;;;;;;17.75;46.33;100370.13;4409594;32;33501;-81
2022/04/28 08:24:51;;;;;;;9.13;5.87;;;;;;;17.25;50.56;100383.50;4393587;32;33724;-81
2022/04/28 08:27:25;;;;;;;9.93;5.78;;;;;;;16.74;52.97;100376.53;4382341;32;33544;-81
2022/04/28 08:30:01;;;;;;;8.90;5.75;;;;;;;16.78;51.88;100377.78;4408226;32;33940;-80
2022/04/28 08:32:34;;;;;;;10.52;5.60;;;;;;;17.55;51.07;100380.69;4422383;32;34089;-81
2022/04/28 08:35:03;;;;;;;11.88;7.60;;;;;;;17.81;52.23;100381.38;4409516;32;34509;-81
2022/04/28 08:37:36;;;;;;;10.57;6.03;;;;;;;17.78;50.88;100385.47;4396811;32;32827;-81
2022/04/28 08:40:09;;;;;;;11.70;5.25;;;;;;;17.97;51.39;100389.00;4422008;32;33671;-81
2022/04/28 08:42:46;;;;;;;;;;;;;;;17.99;50.85;100386.81;4397329;32;32194;-81
2022/04/28 08:45:31;;;;;;;8.13;5.45;;;;;;;18.19;49.10;100370.66;4413606;32;32778;-81
2022/04/28 08:48:10;;;;;;;9.30;5.05;;;;;;;18.35;51.21;100377.38;4405069;32;33854;-81
2022/04/28 08:50:46;;;;;;;10.60;5.00;;;;;;;18.50;46.92;100382.44;4406134;32;32322;-83
2022/04/28 08:53:22;;;;;;;11.12;5.03;;;;;;;18.68;48.37;100385.09;4420580;32;31674;-82
2022/04/28 08:55:57;;;;;;;9.57;5.40;;;;;;;18.83;49.67;100387.38;4431562;32;33900;-82
2022/04/28 08:58:38;;;;;;;10.25;5.68;;;;;;;18.95;51.50;100388.16;4420014;32;34528;-81
2022/04/28 09:01:10;;;;;;;8.93;5.93;;;;;;;18.97;48.16;100386.81;4419792;32;33821;-82
2022/04/28 09:03:53;;;;;;;8.88;5.70;;;;;;;18.26;47.30;100387.16;4421291;32;32190;-81
2022/04/28 09:06:45;;;;;;;7.93;5.07;;;;;;;17.77;47.88;100392.94;4413395;32;32439;-81
2022/04/28 09:09:25;;;;;;;8.68;5.87;;;;;;;17.75;48.55;100391.50;4422685;32;34146;-82
2022/04/28 09:12:07;;;;;;;9.02;5.85;;;;;;;17.89;48.15;100392.97;4422045;32;34594;-82
2022/04/28 09:14:49;;;;;;;8.90;5.90;;;;;;;18.25;49.41;100391.88;4421400;32;33933;-82
2022/04/28 09:17:20;;;;;;;10.70;7.35;;;;;;;18.31;48.76;100390.91;4420685;32;34491;-82
2022/04/28 09:20:08;;;;;;;12.00;7.62;;;;;;;18.35;49.41;100385.72;4420153;32;33020;-82
2022/04/28 09:22:44;;;;;;;9.55;6.37;;;;;;;18.15;49.45;100402.78;4421282;32;34763;-82
2022/04/28 09:25:24;;;;;;;10.70;6.32;;;;;;;18.18;49.72;100393.13;4402498;32;32636;-82
2022/04/28 09:27:56;;;;;;;9.13;6.45;;;;;;;18.51;50.05;100392.47;4383852;32;31846;-81
2022/04/28 09:30:35;;;;;;;11.05;7.05;;;;;;;18.52;49.60;100395.00;4395698;32;33052;-82
2022/04/28 09:33:24;;;;;;;9.27;6.45;;;;;;;18.00;48.47;100410.75;4403860;32;32320;-81
2022/04/28 09:35:54;;;;;;;11.43;6.93;;;;;;;18.50;48.63;100396.34;4397688;32;33678;-82
2022/04/28 09:38:26;;;;;;;9.57;7.05;;;;;;;18.59;48.36;100392.94;4404436;32;33828;-81
2022/04/28 09:44:18;;;;;;;11.30;6.80;;;;;;;18.11;49.12;100396.00;4412579;32;32486;-82
2022/04/28 09:46:53;;;;;;;9.93;6.93;;;;;;;18.45;48.74;100402.63;4398614;32;32747;-82
2022/04/28 09:49:33;;;;;;;13.30;7.25;;;;;;;18.39;48.32;100400.81;4397476;32;33374;-82
2022/04/28 09:52:16;;;;;;;10.85;6.60;;;;;;;18.19;48.77;100403.16;4398163;32;32259;-82
2022/04/28 09:54:50;;;;;;;10.05;6.57;;;;;;;18.52;46.94;100408.91;4393101;32;32461;-82
2022/04/28 09:57:29;;;;;;;9.38;6.50;;;;;;;18.49;46.59;100401.06;4383994;32;32881;-81
2022/04/28 10:00:01;;;;;;;10.63;6.70;;;;;;;19.04;46.94;100408.91;4404439;32;33498;-82
2022/04/28 10:02:48;;;;;;;15.68;10.00;;;;;;;18.44;46.48;100412.06;4398378;32;34260;-81
2022/04/28 10:05:30;;;;;;;17.67;11.45;;;;;;;19.03;47.48;100398.88;4396047;32;33079;-83
2022/04/28 10:07:59;;;;;;;12.30;7.97;;;;;;;19.25;45.07;100407.41;4404451;32;34005;-82
2022/04/28 10:10:37;;;;;;;10.15;7.30;;;;;;;19.61;46.97;100406.16;4398574;32;34477;-81
2022/04/28 10:13:11;;;;;;;8.73;5.95;;;;;;;19.64;44.21;100403.69;4408606;32;32473;-81
2022/04/28 10:15:40;;;;;;;8.40;5.47;;;;;;;19.58;44.45;100401.06;4406370;32;34709;-83
2022/04/28 10:18:16;;;;;;;10.50;5.62;;;;;;;19.93;46.36;100396.13;4403874;32;33373;-84
2022/04/28 10:20:55;;;;;;;7.65;5.15;;;;;;;20.16;46.58;100402.59;4396009;32;33769;-82
2022/04/28 10:35:04;;;;;;;;;;;;;;;20.07;39.79;100396.66;4401814;32;32711;-82
2022/04/28 10:37:40;;;;;;;6.75;4.47;;;;;;;19.98;38.24;100396.22;4416690;32;34977;-81
2022/04/28 10:40:16;;;;;;;10.25;4.65;;;;;;;20.29;38.97;100388.31;4396062;32;32999;-79
2022/04/28 10:42:48;;;;;;;7.55;4.12;;;;;;;20.40;39.62;100398.56;4409563;32;32531;-80
2022/04/28 10:45:25;;;;;;;9.18;4.78;;;;;;;20.30;38.91;100392.78;4410219;32;34482;-81
2022/04/28 10:48:28;;;;;;;5.80;3.62;;;;;;;20.38;43.72;100397.97;4398329;32;32417;-81
2022/04/28 10:51:13;;;;;;;7.00;3.45;;;;;;;20.48;40.69;100389.75;4423835;32;33241;-80
2022/04/28 10:54:09;;;;;;;5.97;3.42;;;;;;;20.51;41.05;100383.66;4409667;32;33291;-79
2022/04/28 10:56:50;;;;;;;8.02;3.50;;;;;;;20.67;39.24;100390.31;4409151;32;34431;-81
2022/04/28 10:59:34;;;;;;;15.40;10.15;;;;;;;20.88;40.69;100392.22;4427246;32;34051;-81
2022/04/28 11:02:15;;;;;;;10.20;6.57;;;;;;;20.63;40.57;100389.97;4410254;32;33397;-81
2022/04/28 11:05:12;;;;;;;8.52;5.55;;;;;;;20.25;40.14;100395.50;4407990;32;32395;-78
2022/04/28 11:07:45;;;;;;;10.43;5.78;;;;;;;20.19;41.47;100400.16;4406401;32;35399;-79
2022/04/28 11:10:13;;;;;;;9.45;5.30;;;;;;;20.25;40.92;100401.91;4402377;32;34763;-80
2022/04/28 11:12:42;;;;;;;9.15;6.00;;;;;;;20.17;40.57;100401.50;4399823;32;31686;-80
2022/04/28 11:15:13;;;;;;;9.70;5.85;;;;;;;20.34;40.44;100408.75;4409020;32;33718;-80
2022/04/28 11:17:45;;;;;;;8.02;5.45;;;;;;;20.57;39.84;100404.09;4409713;32;35304;-80
2022/04/28 11:20:21;;;;;;;9.73;5.20;;;;;;;20.61;39.85;100402.50;4404045;32;34525;-80
2022/04/28 11:22:55;;;;;;;8.52;5.37;;;;;;;20.54;39.38;100416.63;4410607;32;33383;-80
2022/04/28 11:25:35;;;;;;;8.05;4.43;;;;;;;19.72;40.98;100414.44;4397296;32;32702;-81
2022/04/28 11:28:09;;;;;;;10.43;7.30;;;;;;;20.32;42.08;100404.53;4397538;32;35469;-80
2022/04/28 11:30:42;;;;;;;20.67;12.90;;;;;;;20.56;41.23;100405.19;4390273;32;33773;-80
2022/04/28 11:33:14;;;;;;;9.88;6.32;;;;;;;20.66;43.19;100408.12;4396616;32;33237;-80
2022/04/28 11:35:46;;;;;;;12.40;6.30;;;;;;;20.66;40.75;100414.56;4384203;32;32258;-80
2022/04/28 11:38:16;;;;;;;10.98;7.35;;;;;;;20.54;40.92;100416.63;4396655;32;34454;-80
2022/04/28 11:41:03;;;;;;;7.22;4.80;;;;;;;20.61;40.58;100416.44;4402320;32;33366;-81
2022/04/28 11:43:32;;;;;;;6.62;4.37;;;;;;;20.50;38.54;100421.00;4394655;32;33152;-80
2022/04/28 11:46:07;;;;;;;10.95;4.82;;;;;;;20.27;38.77;100427.59;4396155;32;32256;-80
2022/04/28 11:48:38;;;;;;;10.43;5.45;;;;;;;20.58;39.07;100416.94;4395052;32;35244;-81
2022/04/28 11:51:09;;;;;;;8.63;5.12;;;;;;;20.08;40.50;100422.56;4402146;32;32355;-80
2022/04/28 11:53:44;;;;;;;10.43;5.20;;;;;;;20.45;40.67;100429.31;4402796;32;33493;-80
2022/04/28 11:56:25;;;;;;;9.52;4.15;;;;;;;20.44;39.84;100423.97;4400390;32;32862;-80
2022/04/28 11:58:58;;;;;;;7.00;4.47;;;;;;;20.31;39.10;100422.34;4396393;32;35029;-80
2022/04/28 12:01:32;;;;;;;7.32;4.25;;;;;;;20.25;38.81;100418.66;4410630;32;33852;-81
2022/04/28 12:04:01;;;;;;;6.07;3.90;;;;;;;20.63;40.29;100415.06;4395492;32;33549;-80
2022/04/28 12:06:34;;;;;;;11.88;8.40;;;;;;;20.39;38.10;100422.81;4409580;32;32354;-80
2022/04/28 12:14:45;;;;;;;6.55;3.70;;;;;;;20.06;37.52;100420.88;4396366;32;31858;-80
2022/04/28 12:20:10;;;;;;;13.73;9.35;;;;;;;19.96;37.86;100420.69;4426778;32;32980;-80
2022/04/28 12:22:41;;;;;;;7.18;4.18;;;;;;;19.69;38.98;100428.00;4412563;32;34633;-80
2022/04/28 12:25:17;;;;;;;8.45;5.53;;;;;;;19.32;39.06;100420.06;4427102;32;33173;-80
2022/04/28 12:27:47;;;;;;;;;;;;;;;19.90;38.15;100421.72;4434397;32;33393;-81
2022/04/28 12:30:19;;;;;;;6.97;3.80;;;;;;;19.95;37.12;100426.53;4422470;32;35420;-80
2022/04/28 12:32:51;;;;;;;6.65;4.03;;;;;;;20.21;37.46;100416.63;4409973;32;34814;-80
2022/04/28 12:35:34;;;;;;;9.00;3.40;;;;;;;20.01;37.56;100419.94;4400087;32;32899;-80